Time;durP1;ratioP1;P1;durP2;ratioP2;P2;SDS_P1;SDS_P2;PMS_P1;PMS_P2;Temp;Humidity;BMP_temperature;BMP_pressure;BME280_temperature;BME280_humidity;BME280_pressure;Samples;Min_cycle;Max_cycle;Signal;HPM_P1;HPM_P2
2021/10/22 00:00:16;;;;;;;5.43;2.67;;;;;;;5.49;100.00;98747.59;5030750;28;20039;-73
2021/10/22 00:02:42;;;;;;;5.70;3.00;;;;;;;5.58;100.00;98768.03;5029646;28;20029;-72
2021/10/22 00:05:08;;;;;;;8.75;3.65;;;;;;;5.77;100.00;98776.69;5029255;28;20053;-72
2021/10/22 00:07:33;;;;;;;8.15;2.95;;;;;;;5.65;100.00;98757.44;5038553;28;20551;-73
2021/10/22 00:09:59;;;;;;;5.55;2.90;;;;;;;5.83;100.00;98781.38;5016523;28;20040;-72
2021/10/22 00:12:24;;;;;;;7.53;2.78;;;;;;;5.76;100.00;98778.53;5030257;28;20025;-71
2021/10/22 00:14:49;;;;;;;3.60;2.13;;;;;;;5.64;100.00;98793.34;5030542;28;20423;-72
2021/10/22 00:17:15;;;;;;;6.80;2.47;;;;;;;5.44;100.00;98755.31;5029045;28;20395;-70
2021/10/22 00:19:40;;;;;;;8.57;2.22;;;;;;;5.54;100.00;98790.84;5024915;28;20159;-72
2021/10/22 00:22:06;;;;;;;4.15;1.98;;;;;;;5.31;100.00;98746.97;5029743;28;20044;-72
2021/10/22 00:24:31;;;;;;;3.70;2.33;;;;;;;5.34;100.00;98785.00;5031255;28;20065;-72
2021/10/22 00:26:56;;;;;;;4.75;1.98;;;;;;;5.05;100.00;98764.94;5023485;28;20040;-71
2021/10/22 00:29:21;;;;;;;5.05;2.40;;;;;;;5.07;100.00;98796.94;5011828;28;20033;-70
2021/10/22 00:31:47;;;;;;;4.00;2.17;;;;;;;4.67;100.00;98747.69;5028167;28;20116;-72
2021/10/22 00:34:12;;;;;;;4.82;2.40;;;;;;;4.93;100.00;98793.09;5029901;28;20025;-72
2021/10/22 00:36:38;;;;;;;5.03;2.17;;;;;;;4.86;100.00;98788.56;5031493;28;20033;-72
2021/10/22 00:39:04;;;;;;;6.53;2.30;;;;;;;4.80;100.00;98774.00;5020309;28;20391;-72
2021/10/22 00:41:32;;;;;;;7.97;2.70;;;;;;;4.93;100.00;98795.78;5020822;28;20032;-72
2021/10/22 00:43:57;;;;;;;6.68;2.53;;;;;;;4.83;100.00;98777.19;5028783;28;20120;-73
2021/10/22 00:46:27;;;;;;;2.80;1.83;;;;;;;4.86;100.00;98780.53;5031330;28;20079;-74
2021/10/22 00:48:54;;;;;;;9.55;3.10;;;;;;;4.79;100.00;98773.19;5020774;28;20472;-72
2021/10/22 00:51:19;;;;;;;6.38;4.30;;;;;;;4.92;100.00;98801.31;5022176;28;20017;-72
2021/10/22 00:53:45;;;;;;;10.50;6.07;;;;;;;4.86;100.00;98816.22;5018465;28;20040;-72
2021/10/22 00:56:11;;;;;;;10.07;4.63;;;;;;;4.82;100.00;98804.13;5027201;28;20032;-70
2021/10/22 00:58:38;;;;;;;6.70;4.45;;;;;;;4.81;100.00;98797.13;5029253;28;20029;-70
2021/10/22 01:01:04;;;;;;;5.55;3.40;;;;;;;4.89;100.00;98809.69;5017847;28;20056;-73
2021/10/22 01:03:30;;;;;;;7.13;3.00;;;;;;;4.81;100.00;98816.72;5020454;28;20043;-74
2021/10/22 01:05:59;;;;;;;5.32;2.92;;;;;;;4.52;100.00;98797.59;5025552;28;20026;-74
2021/10/22 01:08:26;;;;;;;7.15;2.92;;;;;;;4.71;100.00;98802.63;5034833;28;20032;-70
2021/10/22 01:10:52;;;;;;;5.85;3.35;;;;;;;4.66;100.00;98796.09;5034311;28;20036;-71
2021/10/22 01:13:17;;;;;;;10.75;3.33;;;;;;;4.63;100.00;98820.53;5034715;28;20021;-70
2021/10/22 01:15:43;;;;;;;8.13;3.10;;;;;;;4.50;100.00;98805.78;5016720;28;20034;-71
2021/10/22 01:18:08;;;;;;;7.22;3.05;;;;;;;4.48;100.00;98785.50;5024235;28;20025;-71
2021/10/22 01:20:37;;;;;;;3.90;2.55;;;;;;;4.58;100.00;98818.34;5034332;28;20509;-71
2021/10/22 01:23:03;;;;;;;5.43;2.70;;;;;;;4.50;100.00;98808.44;5052983;28;20112;-71
2021/10/22 01:25:28;;;;;;;7.85;3.08;;;;;;;4.50;100.00;98821.00;5034186;28;20550;-70
2021/10/22 01:27:55;;;;;;;8.07;2.78;;;;;;;4.50;100.00;98818.34;5031452;28;20044;-71
2021/10/22 01:30:23;;;;;;;7.68;3.35;;;;;;;4.79;100.00;98815.19;5040689;28;20079;-70
2021/10/22 01:32:56;;;;;;;5.22;2.95;;;;;;;4.80;100.00;98815.03;5033120;28;20025;-70
2021/10/22 01:35:21;;;;;;;7.57;2.60;;;;;;;4.79;100.00;98812.50;5044467;28;20030;-71
2021/10/22 01:37:48;;;;;;;4.80;2.83;;;;;;;4.82;100.00;98821.09;5029766;28;20048;-71
2021/10/22 01:40:13;;;;;;;6.00;2.58;;;;;;;4.74;100.00;98817.53;5034020;28;20052;-71
2021/10/22 01:42:39;;;;;;;6.50;2.80;;;;;;;4.52;100.00;98800.25;5034800;28;20029;-71
2021/10/22 01:45:06;;;;;;;9.15;3.35;;;;;;;4.58;100.00;98827.25;5032809;28;20030;-71
2021/10/22 01:47:32;;;;;;;5.13;2.42;;;;;;;4.36;100.00;98804.56;5024295;28;20478;-71
2021/10/22 01:49:57;;;;;;;5.53;2.80;;;;;;;4.37;100.00;98826.84;5034393;28;20037;-71
2021/10/22 01:52:22;;;;;;;5.50;2.65;;;;;;;4.23;100.00;98820.28;5020579;28;20112;-71
2021/10/22 01:54:48;;;;;;;4.90;2.05;;;;;;;4.06;100.00;98814.03;5043679;28;20112;-71
2021/10/22 01:57:14;;;;;;;8.77;3.58;;;;;;;3.86;100.00;98792.03;5031055;28;20060;-73
2021/10/22 01:59:39;;;;;;;10.23;3.13;;;;;;;3.85;100.00;98811.78;5042121;28;20099;-72
2021/10/22 02:02:05;;;;;;;6.57;3.25;;;;;;;4.28;100.00;98830.50;5030889;28;20036;-73
2021/10/22 02:04:31;;;;;;;5.95;2.92;;;;;;;4.33;100.00;98834.38;5034495;28;20025;-72
2021/10/22 02:06:57;;;;;;;5.32;2.90;;;;;;;4.07;100.00;98809.53;5030181;28;20116;-73
2021/10/22 02:09:22;;;;;;;5.78;2.70;;;;;;;4.16;100.00;98814.72;5041349;28;20128;-73
2021/10/22 02:11:48;;;;;;;6.53;2.88;;;;;;;4.09;100.00;98836.97;5053550;28;20029;-71
2021/10/22 02:14:15;;;;;;;5.55;2.80;;;;;;;4.10;100.00;98839.47;5023110;28;20101;-70
2021/10/22 02:16:41;;;;;;;7.53;3.28;;;;;;;4.03;100.00;98837.59;5014784;28;20079;-71
2021/10/22 02:19:07;;;;;;;7.78;3.63;;;;;;;3.65;100.00;98816.50;5019367;28;20418;-73
2021/10/22 02:21:32;;;;;;;14.63;4.57;;;;;;;3.48;100.00;98820.94;5038024;28;20108;-72
2021/10/22 02:23:57;;;;;;;9.88;4.78;;;;;;;3.63;100.00;98837.22;5032533;28;20367;-73
2021/10/22 02:26:23;;;;;;;6.90;4.00;;;;;;;3.47;100.00;98842.50;5038814;28;20390;-73
2021/10/22 02:28:48;;;;;;;10.63;4.63;;;;;;;3.34;100.00;98828.69;5041837;28;20030;-74
2021/10/22 02:31:15;;;;;;;6.57;3.65;;;;;;;3.47;100.00;98829.13;5030257;28;20025;-74
2021/10/22 02:33:41;;;;;;;7.25;3.28;;;;;;;3.45;100.00;98836.44;5019683;28;20045;-73
2021/10/22 02:36:06;;;;;;;7.10;3.50;;;;;;;3.22;100.00;98796.00;5026920;28;20029;-72
2021/10/22 02:38:32;;;;;;;6.82;3.10;;;;;;;3.35;100.00;98825.00;5033237;28;20064;-72
2021/10/22 02:40:57;;;;;;;7.30;3.55;;;;;;;3.36;100.00;98846.25;5033190;28;20112;-73
2021/10/22 02:43:22;;;;;;;7.68;3.90;;;;;;;3.39;100.00;98847.78;5028568;28;20035;-72
2021/10/22 02:45:48;;;;;;;40.67;4.85;;;;;;;3.21;100.00;98829.94;5021755;28;20030;-72
2021/10/22 02:48:13;;;;;;;87.05;5.35;;;;;;;3.34;100.00;98832.19;5391045;22;20124;-73
2021/10/22 02:50:38;;;;;;;9.38;3.55;;;;;;;3.51;100.00;98851.84;5058169;28;20032;-73
2021/10/22 02:53:04;;;;;;;126.50;7.32;;;;;;;3.45;100.00;98836.44;5063552;28;20149;-70
2021/10/22 02:55:29;;;;;;;42.58;4.70;;;;;;;3.42;100.00;98852.81;5056464;28;20067;-71
2021/10/22 02:57:55;;;;;;;175.73;7.90;;;;;;;3.22;100.00;98852.16;5045992;28;20022;-71
2021/10/22 03:00:21;;;;;;;73.90;5.70;;;;;;;3.13;100.00;98853.94;5053825;28;20394;-72
2021/10/22 03:02:47;;;;;;;47.33;5.63;;;;;;;3.12;100.00;98868.31;5036902;28;20033;-71
2021/10/22 03:05:12;;;;;;;16.23;5.10;;;;;;;3.29;100.00;98862.06;5034999;28;20035;-71
2021/10/22 03:07:38;;;;;;;21.25;5.00;;;;;;;3.32;100.00;98857.41;5042649;28;20021;-71
2021/10/22 03:10:05;;;;;;;51.60;6.55;;;;;;;3.27;100.00;98871.25;5059968;28;20029;-69
2021/10/22 03:12:30;;;;;;;18.55;5.25;;;;;;;3.23;100.00;98860.03;5054347;28;20049;-71
2021/10/22 03:14:56;;;;;;;8.70;4.57;;;;;;;3.23;100.00;98876.06;5051117;28;20026;-70
2021/10/22 03:17:21;;;;;;;22.52;5.50;;;;;;;3.18;100.00;98878.38;5058942;28;20042;-69
2021/10/22 03:19:46;;;;;;;45.33;5.38;;;;;;;3.19;100.00;98877.38;5059576;28;20036;-70
2021/10/22 03:22:12;;;;;;;20.00;4.97;;;;;;;3.25;100.00;98879.44;5059533;28;20406;-70
2021/10/22 03:24:37;;;;;;;12.73;5.30;;;;;;;3.42;100.00;98880.38;5043482;28;20026;-70
2021/10/22 03:27:04;;;;;;;43.85;4.80;;;;;;;3.33;100.00;98870.66;5036238;28;20081;-70
2021/10/22 03:29:30;;;;;;;146.05;7.32;;;;;;;3.33;100.00;98865.28;5042546;28;20033;-72
2021/10/22 03:31:55;;;;;;;7.55;3.72;;;;;;;3.35;100.00;98867.78;5048640;28;20085;-71
2021/10/22 03:34:21;;;;;;;21.73;4.72;;;;;;;3.46;100.00;98883.63;5050308;28;20033;-70
2021/10/22 03:36:46;;;;;;;15.80;4.50;;;;;;;3.57;100.00;98879.84;5054628;28;20013;-70
2021/10/22 03:39:11;;;;;;;11.75;4.72;;;;;;;3.59;100.00;98894.75;5045589;28;20034;-70
2021/10/22 03:41:36;;;;;;;9.20;4.32;;;;;;;3.72;100.00;98897.84;5043786;28;20017;-70
2021/10/22 03:44:02;;;;;;;8.63;3.53;;;;;;;3.79;100.00;98902.56;5046249;28;20029;-70
2021/10/22 03:46:28;;;;;;;13.07;3.95;;;;;;;3.63;100.00;98893.41;5056569;28;20021;-70
2021/10/22 03:48:53;;;;;;;26.77;3.90;;;;;;;3.66;100.00;98902.97;5043146;28;20029;-71
2021/10/22 03:51:19;;;;;;;35.00;3.90;;;;;;;3.63;100.00;98904.13;5048302;28;20153;-71
2021/10/22 03:53:44;;;;;;;9.48;2.95;;;;;;;3.76;100.00;98900.19;5025755;28;20049;-71
2021/10/22 03:56:09;;;;;;;10.75;3.80;;;;;;;3.81;100.00;98903.25;5039498;28;20029;-71
2021/10/22 03:58:35;;;;;;;15.73;4.35;;;;;;;3.65;100.00;98890.59;5039416;28;20052;-71
2021/10/22 04:01:00;;;;;;;24.98;4.55;;;;;;;3.85;100.00;98907.25;5041400;28;20024;-71
2021/10/22 04:03:25;;;;;;;45.20;5.68;;;;;;;3.80;100.00;98904.22;5065102;28;20026;-71
2021/10/22 04:05:50;;;;;;;34.90;5.35;;;;;;;3.78;100.00;98891.00;5038893;28;20013;-71
2021/10/22 04:08:16;;;;;;;49.22;5.35;;;;;;;3.86;100.00;98907.13;5058161;28;20032;-71
2021/10/22 04:10:43;;;;;;;22.23;4.78;;;;;;;3.96;100.00;98920.41;5048123;28;20033;-71
2021/10/22 04:13:11;;;;;;;13.02;4.43;;;;;;;3.92;100.00;98911.00;5053056;28;20025;-71
2021/10/22 04:15:40;;;;;;;14.70;3.88;;;;;;;3.94;100.00;98900.97;5052387;28;20035;-71
2021/10/22 04:18:05;;;;;;;15.75;4.18;;;;;;;3.92;100.00;98919.03;5061099;28;20088;-71
2021/10/22 04:20:30;;;;;;;11.50;4.05;;;;;;;3.90;100.00;98907.63;5054458;28;20033;-71
2021/10/22 04:22:58;;;;;;;45.15;4.57;;;;;;;3.87;100.00;98914.13;5047148;28;20108;-71
2021/10/22 04:25:24;;;;;;;12.80;3.90;;;;;;;3.83;100.00;98914.63;5055409;28;20020;-70
2021/10/22 04:27:49;;;;;;;13.23;4.57;;;;;;;3.89;100.00;98925.53;5063604;28;20021;-71
2021/10/22 04:30:14;;;;;;;20.20;6.25;;;;;;;3.81;100.00;98914.78;5032477;28;20098;-71
2021/10/22 04:32:40;;;;;;;24.52;5.60;;;;;;;3.72;100.00;98905.88;5034394;28;20040;-71
2021/10/22 04:35:05;;;;;;;15.35;6.28;;;;;;;3.93;100.00;98920.72;5034898;28;20025;-71
2021/10/22 04:37:34;;;;;;;85.13;10.45;;;;;;;3.99;100.00;98929.94;5042023;28;20089;-71
2021/10/22 04:42:47;;;;;;;23.35;7.18;;;;;;;4.08;100.00;98910.25;5036623;28;20044;-71
2021/10/22 04:45:15;;;;;;;18.45;6.10;;;;;;;4.18;100.00;98917.16;5054133;28;20029;-70
2021/10/22 04:47:40;;;;;;;13.85;4.85;;;;;;;4.26;100.00;98916.34;5035914;28;20038;-70
2021/10/22 04:50:09;;;;;;;20.45;6.47;;;;;;;4.20;100.00;98932.25;5057228;28;20057;-70
2021/10/22 04:52:36;;;;;;;19.88;4.75;;;;;;;4.04;100.00;98914.25;5052530;28;20061;-70
2021/10/22 04:55:02;;;;;;;11.40;3.60;;;;;;;3.88;100.00;98901.63;5048071;28;20039;-71
2021/10/22 04:57:27;;;;;;;97.93;6.88;;;;;;;3.93;100.00;98920.72;5060212;28;20021;-71
2021/10/22 04:59:52;;;;;;;37.03;5.95;;;;;;;3.83;100.00;98912.78;5064772;28;20037;-71
2021/10/22 05:02:18;;;;;;;18.20;5.82;;;;;;;3.96;100.00;98931.09;5060996;28;20022;-71
2021/10/22 05:04:43;;;;;;;13.30;5.32;;;;;;;3.95;100.00;98918.69;5039761;28;20018;-71
2021/10/22 05:07:08;;;;;;;22.77;6.20;;;;;;;3.91;100.00;98917.34;5051020;28;20020;-77
2021/10/22 05:09:34;;;;;;;18.88;4.45;;;;;;;3.95;100.00;98916.03;5052054;28;20036;-77
2021/10/22 05:12:05;;;;;;;29.00;4.97;;;;;;;4.02;100.00;98921.59;5055467;28;20055;-73
2021/10/22 05:14:31;;;;;;;37.70;5.53;;;;;;;3.87;100.00;98907.94;5055038;28;20049;-76
2021/10/22 05:16:57;;;;;;;33.40;6.20;;;;;;;3.93;100.00;98910.84;5053253;28;20041;-76
2021/10/22 05:19:22;;;;;;;20.73;5.57;;;;;;;4.11;100.00;98907.25;5034249;28;20095;-75
2021/10/22 05:21:47;;;;;;;23.23;5.63;;;;;;;4.03;100.00;98918.75;5034544;28;20120;-78
2021/10/22 05:24:12;;;;;;;75.50;7.20;;;;;;;4.06;100.00;98930.97;5033962;28;20091;-77
2021/10/22 05:26:38;;;;;;;35.05;7.32;;;;;;;3.96;100.00;98904.34;5033675;28;20064;-77
2021/10/22 05:29:03;;;;;;;38.65;5.43;;;;;;;4.02;100.00;98930.47;5023880;28;20036;-77
2021/10/22 05:31:28;;;;;;;14.73;5.03;;;;;;;4.05;100.00;98943.53;5036444;28;20537;-76
2021/10/22 05:33:53;;;;;;;27.83;5.32;;;;;;;3.96;100.00;98923.06;5028436;28;20052;-76
2021/10/22 05:36:20;;;;;;;14.93;6.75;;;;;;;3.95;100.00;98921.38;5032556;28;20064;-76
2021/10/22 05:38:45;;;;;;;32.50;6.10;;;;;;;3.94;100.00;98925.91;5020954;28;20471;-78
2021/10/22 05:41:11;;;;;;;36.80;6.00;;;;;;;3.71;100.00;98906.00;5027462;28;20089;-76
2021/10/22 05:43:36;;;;;;;24.42;6.18;;;;;;;3.92;100.00;98919.03;5026703;28;20395;-77
2021/10/22 05:46:02;;;;;;;11.55;5.30;;;;;;;4.03;100.00;98921.41;5033547;28;20025;-77
2021/10/22 05:48:27;;;;;;;23.20;6.00;;;;;;;3.86;100.00;98911.63;5033973;28;20036;-75
2021/10/22 05:50:52;;;;;;;77.88;7.80;;;;;;;3.95;100.00;98914.19;5035920;28;20025;-78
2021/10/22 05:53:18;;;;;;;46.45;7.05;;;;;;;3.96;100.00;98923.06;5031321;28;20471;-77
2021/10/22 05:55:43;;;;;;;75.40;7.25;;;;;;;3.79;100.00;98910.56;5029001;28;20030;-77
2021/10/22 05:58:08;;;;;;;221.60;12.60;;;;;;;3.80;100.00;98923.81;5031934;28;20014;-77
2021/10/22 06:00:34;;;;;;;199.57;9.00;;;;;;;3.82;100.00;98935.19;5032940;28;20029;-69
2021/10/22 06:03:00;;;;;;;14.90;6.20;;;;;;;3.87;100.00;98937.38;5030731;28;20032;-69
2021/10/22 06:05:25;;;;;;;77.43;6.53;;;;;;;3.95;100.00;98948.16;5024669;28;20025;-70
2021/10/22 06:07:50;;;;;;;32.90;5.88;;;;;;;3.91;100.00;98950.31;5028840;28;20032;-70
2021/10/22 06:10:16;;;;;;;30.65;5.70;;;;;;;3.99;100.00;98954.88;5035108;28;20068;-70
2021/10/22 06:12:41;;;;;;;146.98;8.75;;;;;;;3.70;100.00;98947.97;5028922;28;20521;-70
2021/10/22 06:15:07;;;;;;;138.40;9.30;;;;;;;3.77;100.00;98960.72;5022228;28;20032;-69
2021/10/22 06:17:32;;;;;;;16.27;5.78;;;;;;;3.78;100.00;98955.22;5024714;28;20029;-71
2021/10/22 06:20:02;;;;;;;13.00;5.45;;;;;;;3.87;100.00;98966.81;5023142;28;20600;-70
2021/10/22 06:23:52;;;;;;;37.20;5.22;;;;;;;3.91;100.00;98965.53;5030555;28;20029;-70
2021/10/22 06:25:22;;;;;;;111.97;8.70;;;;;;;3.85;100.00;98971.50;5022424;28;20544;-71
2021/10/22 06:27:49;;;;;;;48.40;6.57;;;;;;;3.92;100.00;98972.56;5023553;28;20030;-71
2021/10/22 06:30:15;;;;;;;40.65;5.85;;;;;;;3.94;100.00;98975.91;5026105;28;20120;-70
2021/10/22 06:32:40;;;;;;;53.85;7.32;;;;;;;3.87;100.00;98985.56;5027769;28;20084;-70
2021/10/22 06:35:06;;;;;;;30.80;6.35;;;;;;;4.00;100.00;98985.16;5029745;28;20025;-71
2021/10/22 06:37:31;;;;;;;48.20;6.18;;;;;;;3.97;100.00;98982.78;5027786;28;20032;-70
2021/10/22 06:39:57;;;;;;;85.57;7.95;;;;;;;3.96;100.00;99000.69;5020753;28;20040;-70
2021/10/22 06:42:22;;;;;;;177.95;10.85;;;;;;;3.87;100.00;98986.41;5027191;28;20025;-75
2021/10/22 06:44:47;;;;;;;25.00;6.53;;;;;;;4.15;100.00;99000.50;5031661;28;20060;-75
2021/10/22 06:47:13;;;;;;;20.88;5.57;;;;;;;4.27;100.00;99009.13;5046275;28;20033;-70
2021/10/22 06:49:38;;;;;;;48.38;6.55;;;;;;;4.18;100.00;98989.44;5048737;28;20295;-70
2021/10/22 06:52:05;;;;;;;10.25;4.72;;;;;;;4.43;100.00;99010.19;5030770;28;20021;-70
2021/10/22 06:54:30;;;;;;;7.00;4.60;;;;;;;4.51;100.00;99004.91;5024976;28;20109;-70
2021/10/22 06:56:55;;;;;;;8.65;4.75;;;;;;;4.73;100.00;99008.84;5033308;28;20068;-69
2021/10/22 06:59:21;;;;;;;33.60;5.45;;;;;;;4.77;100.00;99019.09;5025415;28;20117;-70
2021/10/22 07:01:46;;;;;;;83.70;6.03;;;;;;;4.80;100.00;99017.91;5020878;28;20128;-70
2021/10/22 07:04:13;;;;;;;102.95;6.78;;;;;;;4.97;100.00;99016.13;5028764;28;20029;-69
2021/10/22 07:09:22;;;;;;;15.13;4.45;;;;;;;5.83;100.00;99034.56;5031665;28;20083;-73
2021/10/22 07:11:47;;;;;;;192.18;8.73;;;;;;;5.44;100.00;99020.94;5034299;28;20057;-74
2021/10/22 07:14:13;;;;;;;255.27;10.98;;;;;;;5.62;98.68;99040.44;5029307;28;20037;-74
2021/10/22 07:16:39;;;;;;;82.00;6.45;;;;;;;7.07;99.73;99044.09;5030146;28;20116;-74
2021/10/22 07:19:05;;;;;;;51.33;5.32;;;;;;;8.50;88.51;99041.75;5026715;28;20467;-74
2021/10/22 07:21:30;;;;;;;18.50;4.13;;;;;;;10.08;84.92;99048.44;5023496;28;20029;-75
2021/10/22 07:23:58;;;;;;;15.00;4.55;;;;;;;10.73;70.47;99039.19;5023800;28;20030;-73
2021/10/22 07:26:23;;;;;;;7.22;3.35;;;;;;;12.29;71.41;99060.19;5027763;28;20446;-70
2021/10/22 07:28:48;;;;;;;15.68;3.30;;;;;;;12.12;64.03;99067.03;5030784;28;20037;-71
2021/10/22 07:31:14;;;;;;;6.75;2.88;;;;;;;11.88;64.73;99063.03;5022248;28;20029;-70
2021/10/22 07:33:41;;;;;;;4.47;3.15;;;;;;;11.57;67.33;99065.22;5020018;28;20077;-71
2021/10/22 07:36:14;;;;;;;7.22;3.38;;;;;;;12.54;63.58;99046.78;5018999;28;20029;-71
2021/10/22 07:38:43;;;;;;;7.78;3.03;;;;;;;14.79;58.34;99060.31;5022202;28;20029;-71
2021/10/22 07:41:09;;;;;;;;;;;;;;;15.52;54.62;99075.03;5050098;28;20041;-70
2021/10/22 07:43:35;;;;;;;3.20;2.17;;;;;;;15.42;54.21;99085.66;5027362;28;19967;-71
2021/10/22 07:46:01;;;;;;;3.30;2.40;;;;;;;14.95;54.75;99088.88;5020314;28;20037;-70
2021/10/22 07:48:26;;;;;;;6.13;2.55;;;;;;;14.87;55.13;99091.91;5013171;28;20522;-71
2021/10/22 07:50:52;;;;;;;5.70;2.25;;;;;;;16.15;51.15;99096.47;5048517;28;20070;-71
2021/10/22 07:53:17;;;;;;;4.28;2.28;;;;;;;16.41;50.64;99089.75;5035750;28;20503;-71
2021/10/22 07:55:44;;;;;;;3.05;1.50;;;;;;;18.39;45.11;99088.88;5023681;28;20029;-71
2021/10/22 07:58:10;;;;;;;3.90;1.70;;;;;;;19.65;43.19;99092.97;5040786;28;20029;-71
2021/10/22 08:00:35;;;;;;;4.80;1.48;;;;;;;20.94;40.75;99086.84;5024153;28;20041;-71
2021/10/22 08:03:00;;;;;;;3.70;1.27;;;;;;;20.76;39.45;99091.66;5055623;28;20029;-71
2021/10/22 08:05:26;;;;;;;6.95;1.88;;;;;;;20.28;41.25;99104.41;5055868;28;20029;-71
2021/10/22 08:07:51;;;;;;;5.28;1.60;;;;;;;20.94;39.82;99095.09;5044240;28;20032;-71
2021/10/22 08:10:18;;;;;;;4.28;1.50;;;;;;;21.17;38.65;99113.97;5035835;28;20109;-71
2021/10/22 08:12:44;;;;;;;5.43;1.75;;;;;;;21.85;37.13;99113.22;5048318;28;20025;-71
2021/10/22 08:15:09;;;;;;;8.52;1.60;;;;;;;22.09;37.31;99116.34;5056495;28;20086;-71
2021/10/22 08:17:35;;;;;;;5.85;1.70;;;;;;;22.44;35.87;99112.84;5037933;28;20033;-71
2021/10/22 08:20:09;;;;;;;3.83;1.42;;;;;;;21.93;35.87;99120.13;5017794;28;20027;-71
2021/10/22 08:22:35;;;;;;;5.05;1.67;;;;;;;22.57;35.09;99113.44;5022224;28;20134;-70
2021/10/22 08:25:05;;;;;;;4.53;1.55;;;;;;;22.08;36.83;99120.19;5012721;28;20173;-70
2021/10/22 08:27:33;;;;;;;5.15;1.52;;;;;;;21.65;36.56;99116.72;5014130;28;20392;-70
2021/10/22 08:29:59;;;;;;;5.82;1.58;;;;;;;22.83;35.33;99120.59;5020704;28;20506;-71
2021/10/22 08:32:26;;;;;;;6.68;1.65;;;;;;;22.04;36.72;99119.91;5041773;28;20044;-70
2021/10/22 08:34:52;;;;;;;6.80;1.80;;;;;;;22.47;35.57;99123.34;5025581;28;20033;-70
2021/10/22 08:37:17;;;;;;;4.20;1.52;;;;;;;22.38;36.16;99129.69;5020207;28;20030;-71
2021/10/22 08:39:45;;;;;;;6.90;1.75;;;;;;;22.74;36.12;99111.22;5034056;28;20036;-70
2021/10/22 08:42:13;;;;;;;4.32;1.80;;;;;;;24.17;34.24;99116.41;5030424;28;20026;-71
2021/10/22 08:44:43;;;;;;;4.53;1.37;;;;;;;24.53;33.01;99119.00;5031860;28;20029;-71
2021/10/22 08:47:09;;;;;;;5.18;1.40;;;;;;;24.26;33.15;99109.19;5033304;28;20021;-71
2021/10/22 08:49:36;;;;;;;6.28;1.42;;;;;;;24.28;32.33;99109.69;5029476;28;20075;-70
2021/10/22 08:52:03;;;;;;;3.45;1.20;;;;;;;20.44;38.20;99121.03;5028950;28;20053;-71
2021/10/22 08:54:31;;;;;;;4.75;1.55;;;;;;;20.93;38.46;99121.78;5030991;28;20061;-71
2021/10/22 08:56:56;;;;;;;5.47;1.27;;;;;;;20.25;37.99;99113.16;5041861;28;20494;-71
2021/10/22 08:59:22;;;;;;;5.88;1.55;;;;;;;20.78;37.76;99105.16;5032981;28;20040;-71
2021/10/22 09:02:14;;;;;;;8.23;1.25;;;;;;;20.18;38.29;99118.03;5022992;28;20035;-70
2021/10/22 09:04:44;;;;;;;8.82;1.40;;;;;;;21.32;36.32;99113.22;5027865;28;20034;-70
2021/10/22 09:07:18;;;;;;;9.73;1.77;;;;;;;19.41;37.59;99103.34;5036042;28;20415;-71
2021/10/22 09:10:02;;;;;;;10.15;1.38;;;;;;;17.65;41.52;99113.41;5050722;28;20024;-70
2021/10/22 09:12:45;;;;;;;9.55;1.75;;;;;;;19.83;39.46;99107.44;5034258;28;20025;-70
2021/10/22 09:15:19;;;;;;;8.82;1.70;;;;;;;20.52;37.11;99109.56;5037276;28;20683;-69
2021/10/22 09:17:45;;;;;;;5.95;1.30;;;;;;;20.96;36.01;99101.16;5030820;28;20021;-70
2021/10/22 09:20:14;;;;;;;7.70;1.65;;;;;;;17.33;42.61;99115.75;5029407;28;20026;-70
2021/10/22 09:22:46;;;;;;;7.05;1.67;;;;;;;19.27;37.96;99107.53;5045056;28;20474;-71
2021/10/22 09:25:12;;;;;;;5.13;1.23;;;;;;;20.27;38.16;99110.97;5052549;28;20115;-70
2021/10/22 09:27:40;;;;;;;6.90;1.35;;;;;;;18.67;39.07;99117.28;5052393;28;20136;-70
2021/10/22 09:30:29;;;;;;;8.77;1.40;;;;;;;19.71;37.70;99085.63;5035002;28;20056;-70
2021/10/22 09:32:57;;;;;;;7.30;1.70;;;;;;;20.20;38.09;99110.38;5031026;28;20637;-70
2021/10/22 09:35:37;;;;;;;7.43;1.38;;;;;;;22.32;35.90;99109.53;5029821;28;20083;-71
2021/10/22 09:38:23;;;;;;;5.68;1.35;;;;;;;21.76;34.84;99101.91;5035499;28;20097;-71
2021/10/22 09:41:05;;;;;;;9.38;1.50;;;;;;;18.92;38.97;99118.81;5019084;28;20034;-71
2021/10/22 09:43:34;;;;;;;8.98;1.35;;;;;;;21.21;36.32;99104.06;5031930;28;20053;-71
2021/10/22 09:46:16;;;;;;;7.88;1.73;;;;;;;21.47;35.93;99109.75;5031214;28;20458;-71
2021/10/22 09:48:45;;;;;;;10.27;1.50;;;;;;;21.29;34.76;99115.69;5012194;28;20044;-71
2021/10/22 09:51:24;;;;;;;7.38;1.45;;;;;;;21.28;34.75;99105.78;5016280;28;20458;-71
2021/10/22 09:53:50;;;;;;;6.25;1.42;;;;;;;20.03;37.01;99115.09;5032521;28;20115;-71
2021/10/22 09:56:19;;;;;;;9.00;1.63;;;;;;;19.87;36.75;99112.19;5037753;28;20035;-71
2021/10/22 09:58:57;;;;;;;6.97;1.53;;;;;;;20.12;36.44;99110.81;5028004;28;20522;-71
2021/10/22 10:01:28;;;;;;;7.03;1.25;;;;;;;19.08;37.91;99112.47;5018201;28;20027;-71
2021/10/22 10:03:53;;;;;;;4.43;1.17;;;;;;;19.21;36.78;99109.38;5033002;28;20034;-71
2021/10/22 10:06:19;;;;;;;5.30;1.27;;;;;;;19.60;37.18;99094.81;5031588;28;20022;-70
2021/10/22 10:08:44;;;;;;;6.68;1.60;;;;;;;19.42;37.66;99106.94;5043015;28;20022;-71
2021/10/22 10:11:10;;;;;;;10.25;1.52;;;;;;;17.86;40.42;99122.06;5031072;28;20030;-70
2021/10/22 10:13:35;;;;;;;5.43;1.35;;;;;;;16.26;40.93;99105.75;5032248;28;20021;-70
2021/10/22 10:16:03;;;;;;;6.63;1.20;;;;;;;17.53;40.10;99121.66;5048030;28;20039;-71
2021/10/22 10:18:34;;;;;;;9.33;1.47;;;;;;;19.09;36.54;99110.56;5045831;28;20105;-71
2021/10/22 10:21:02;;;;;;;8.43;2.05;;;;;;;18.87;37.10;99111.34;5012835;28;20026;-71
2021/10/22 10:23:28;;;;;;;7.25;1.35;;;;;;;18.72;36.35;99100.91;5011856;28;20060;-71
2021/10/22 10:25:53;;;;;;;4.28;1.20;;;;;;;19.75;34.84;99111.47;5030794;28;20029;-71
2021/10/22 10:28:38;;;;;;;4.68;1.08;;;;;;;18.51;36.18;99115.34;5049227;28;20032;-71
2021/10/22 10:31:28;;;;;;;7.95;1.50;;;;;;;18.80;35.75;99111.50;5021170;28;20113;-71
2021/10/22 10:33:55;;;;;;;5.22;1.38;;;;;;;20.23;33.32;99098.84;5016146;28;20049;-70
2021/10/22 10:36:46;;;;;;;4.05;1.05;;;;;;;17.20;36.59;99135.97;5030882;28;20038;-71
2021/10/22 10:39:13;;;;;;;4.13;1.27;;;;;;;18.92;35.00;99124.28;5029130;28;20417;-71
2021/10/22 10:41:38;;;;;;;7.68;1.45;;;;;;;18.97;35.28;99116.97;5021493;28;20029;-71
2021/10/22 10:44:22;;;;;;;8.00;1.38;;;;;;;18.44;34.64;99123.72;5033216;28;20139;-71
2021/10/22 10:46:48;;;;;;;5.13;1.08;;;;;;;17.21;36.26;99121.25;5041114;28;20029;-71
2021/10/22 10:49:46;;;;;;;7.25;1.30;;;;;;;19.11;34.47;99111.16;5026553;28;20446;-71
2021/10/22 10:52:37;;;;;;;6.10;1.27;;;;;;;18.40;34.48;99097.91;5033301;28;20092;-71
2021/10/22 10:55:26;;;;;;;4.40;1.15;;;;;;;18.92;33.65;99122.38;5025294;28;20028;-71
2021/10/22 10:57:56;;;;;;;7.07;1.25;;;;;;;19.37;33.49;99115.91;5046814;28;20024;-71
2021/10/22 11:00:24;;;;;;;8.23;1.30;;;;;;;19.08;33.66;99111.66;5030356;28;20033;-71
2021/10/22 11:03:02;;;;;;;6.97;1.23;;;;;;;19.60;33.58;99119.50;5030556;28;20080;-71
2021/10/22 11:05:46;;;;;;;6.22;1.38;;;;;;;19.80;33.03;99125.28;5029181;28;20526;-71
2021/10/22 11:08:21;;;;;;;5.90;1.25;;;;;;;21.58;30.44;99116.97;5033049;28;20029;-71
2021/10/22 11:11:11;;;;;;;6.20;1.30;;;;;;;20.23;31.96;99126.31;5031074;28;20029;-70
2021/10/22 11:13:50;;;;;;;6.93;1.40;;;;;;;19.36;33.40;99124.38;5017724;28;20025;-71
2021/10/22 11:16:21;;;;;;;6.20;1.20;;;;;;;18.09;34.40;99137.59;5022564;28;20025;-71
2021/10/22 11:18:56;;;;;;;5.32;1.27;;;;;;;19.04;32.13;99123.09;5012096;28;20025;-72
2021/10/22 11:21:23;;;;;;;9.57;1.50;;;;;;;20.16;32.05;99133.94;5027197;28;20032;-72
2021/10/22 11:23:49;;;;;;;5.32;1.40;;;;;;;20.66;31.13;99121.00;5030905;28;20025;-73
2021/10/22 11:26:18;;;;;;;4.63;1.20;;;;;;;20.19;30.56;99132.59;5029670;28;20595;-72
2021/10/22 11:28:45;;;;;;;4.70;0.90;;;;;;;21.57;28.73;99120.81;5033944;28;20036;-72
2021/10/22 11:31:10;;;;;;;4.13;1.10;;;;;;;20.25;29.56;99132.41;5034446;28;20040;-72
2021/10/22 11:33:36;;;;;;;4.93;1.05;;;;;;;19.64;31.92;99123.41;5030222;28;20025;-73
2021/10/22 11:36:02;;;;;;;5.72;0.95;;;;;;;19.81;30.99;99123.38;5027528;28;20584;-72